Fridtjof Nansen — DGLS — position and weather

sailwx.info

Track history (hours):
 
Tides and Currents Weather Stations Pressure Air Temp Water Temp Dewpoint Dewpoint Depression Visibility Wind Speed Wind Dir Waves Ship Positions

Fridtjof Nansen (Germany)

Last reported at 2019-Aug-24 19:19 UTC. Time now 2019-Aug-24 19:56 UTC.
Position N 53°54' E 011°27'.

Length 48 m; draft 2.8 m.

Type: Sailing vessel. MMSI: 211364430.

Date/timePositionNaut miles runAvg speedWind from/ knotsBaromVisibWave heightAir tempDewpointWater temp
2019-Aug-24 19:19N 53°54' E 011°27'0 0.0
2019-Aug-24 18:28N 53°54' E 011°27'0 0.0
2019-Aug-24 17:55N 53°54' E 011°27'1 2.3
2019-Aug-24 17:30N 53°55' E 011°26'2 5.1
2019-Aug-24 17:00N 53°57' E 011°24'2 4.3
2019-Aug-24 16:29N 53°59' E 011°22'2 4.0
2019-Aug-24 16:00N 54°00' E 011°20'2 3.7
2019-Aug-24 15:30N 54°02' E 011°23'4 5.3
2019-Aug-24 14:42N 54°05' E 011°27'5 4.9
2019-Aug-24 13:36N 54°10' E 011°32'4 4.6
2019-Aug-24 12:47N 54°13' E 011°35'1 4.3
2019-Aug-24 12:29N 54°14' E 011°37'2 4.2
2019-Aug-24 12:00N 54°15' E 011°39'2 4.0
2019-Aug-24 11:30N 54°17' E 011°40'3 4.0
2019-Aug-24 10:42N 54°20' E 011°43'1 4.1
2019-Aug-24 10:29N 54°21' E 011°44'2 4.1
2019-Aug-24 10:00N 54°22' E 011°46'2 4.2
2019-Aug-24 09:30N 54°24' E 011°48'3 3.9
2019-Aug-24 08:44N 54°27' E 011°50'1 3.9
2019-Aug-24 08:30N 54°27' E 011°51'2 3.6
2019-Aug-24 08:00N 54°29' E 011°53'2 3.4
2019-Aug-24 07:29N 54°31' E 011°54'1 0.8
2019-Aug-24 06:29N 54°31' E 011°55'0 0.0
2019-Aug-24 05:59N 54°31' E 011°55'0 0.0
2019-Aug-24 05:26N 54°31' E 011°55'0 0.1
2019-Aug-24 04:50N 54°31' E 011°55'0 0.0
2019-Aug-24 04:29N 54°31' E 011°55'0 0.0
2019-Aug-24 02:53N 54°31' E 011°55'0 0.0
2019-Aug-24 02:29N 54°31' E 011°55'0 0.0
2019-Aug-24 01:23N 54°31' E 011°55'0 0.0
2019-Aug-24 00:59N 54°31' E 011°55'0 0.0
2019-Aug-24 00:29N 54°31' E 011°55'0 0.0
2019-Aug-23 23:56N 54°31' E 011°55'0 0.0
2019-Aug-23 21:41N 54°31' E 011°55'0 0.0
2019-Aug-23 21:29N 54°31' E 011°55'0 0.0
2019-Aug-23 20:56N 54°31' E 011°55'0 0.0
2019-Aug-23 20:26N 54°31' E 011°55'0 0.0
2019-Aug-23 19:59N 54°31' E 011°55'0 0.0
2019-Aug-23 19:26N 54°31' E 011°55'0 0.0
2019-Aug-23 17:44N 54°31' E 011°55'0 0.0
2019-Aug-23 17:29N 54°31' E 011°55'0 0.0
2019-Aug-23 16:50N 54°31' E 011°55'0 0.0
2019-Aug-23 15:44N 54°31' E 011°55'0 0.0
2019-Aug-23 15:29N 54°31' E 011°55'0 0.3
2019-Aug-23 14:15N 54°32' E 011°55'1 3.4
2019-Aug-23 14:00N 54°32' E 011°55'2 3.7
2019-Aug-23 13:30N 54°34' E 011°56'0 0.4
2019-Aug-23 12:59N 54°34' E 011°56'0 0.0
2019-Aug-23 12:29N 54°34' E 011°56'0 0.0
2019-Aug-23 11:11N 54°34' E 011°56'0 0.0
2019-Aug-23 10:59N 54°34' E 011°56'0 0.0
2019-Aug-23 10:29N 54°34' E 011°56'0 0.0
2019-Aug-23 09:56N 54°34' E 011°56'0 0.0
2019-Aug-23 08:38N 54°34' E 011°56'0 0.0
2019-Aug-23 08:29N 54°34' E 011°56'0 0.0
2019-Aug-23 07:50N 54°34' E 011°56'0 0.0
2019-Aug-23 07:29N 54°34' E 011°56'0 0.0
2019-Aug-23 06:59N 54°34' E 011°56'0 0.0
2019-Aug-23 06:26N 54°34' E 011°56'0 0.0
2019-Aug-23 05:59N 54°34' E 011°56'0 0.0
2019-Aug-23 04:05N 54°34' E 011°56'0 0.0
2019-Aug-23 03:56N 54°34' E 011°56'0 0.0
2019-Aug-23 03:29N 54°34' E 011°56'0 0.0
2019-Aug-23 02:56N 54°34' E 011°56'0 0.0
2019-Aug-23 02:29N 54°34' E 011°56'0 0.0
2019-Aug-23 01:56N 54°34' E 011°56'0 0.0
2019-Aug-23 01:20N 54°34' E 011°56'0 0.0
2019-Aug-23 00:56N 54°34' E 011°56'0 0.0
2019-Aug-23 00:17N 54°34' E 011°56'0 0.0
2019-Aug-22 23:53N 54°34' E 011°56'0 0.0
2019-Aug-22 22:26N 54°34' E 011°56'0 0.0
2019-Aug-22 21:59N 54°34' E 011°56'0 0.0
2019-Aug-22 20:29N 54°34' E 011°56'0 0.0
2019-Aug-22 19:59N 54°34' E 011°56'0 0.0
2019-Aug-22 19:28N 54°34' E 011°56'0 0.0
2019-Aug-22 17:43N 54°34' E 011°56'0 0.0
2019-Aug-22 17:28N 54°34' E 011°56'0 0.0
2019-Aug-22 16:55N 54°34' E 011°56'0 0.0
2019-Aug-22 16:28N 54°34' E 011°56'0 0.4
2019-Aug-22 15:20N 54°34' E 011°56'1 3.1
2019-Aug-22 14:59N 54°33' E 011°56'1 1.7
2019-Aug-22 14:30N 54°32' E 011°56'1 0.8
2019-Aug-22 13:41N 54°32' E 011°57'0 1.2
2019-Aug-22 13:26N 54°32' E 011°58'0 1.0
2019-Aug-22 13:00N 54°32' E 011°58'1 1.1
2019-Aug-22 11:44N 54°31' E 011°56'0 1.3
2019-Aug-22 11:26N 54°30' E 011°56'0 1.1
2019-Aug-22 11:00N 54°30' E 011°55'5 3.7
2019-Aug-22 09:44N 54°31' E 012°03'1 4.4
2019-Aug-22 09:30N 54°31' E 012°05'2 4.2
2019-Aug-22 09:00N 54°31' E 012°09'2 4.0
2019-Aug-22 08:29N 54°31' E 012°12'2 4.0
2019-Aug-22 08:00N 54°30' E 012°15'2 3.8
2019-Aug-22 07:30N 54°30' E 012°19'2 3.8
2019-Aug-22 07:00N 54°30' E 012°22'5 4.0
2019-Aug-22 05:43N 54°31' E 012°31'1 3.9
2019-Aug-22 05:28N 54°31' E 012°32'2 3.7
2019-Aug-22 05:00N 54°31' E 012°35'2 4.1
2019-Aug-22 04:30N 54°30' E 012°38'1 3.0
2019-Aug-22 04:00N 54°29' E 012°40'1 0.1
2019-Aug-21 08:15N 54°28' E 012°42'1 2.2
2019-Aug-21 08:00N 54°28' E 012°42'1 3.0
2019-Aug-21 07:30N 54°30' E 012°42'9 3.2
2019-Aug-21 04:44N 54°39' E 012°43'1 5.0
2019-Aug-21 04:30N 54°40' E 012°43'3 5.1
2019-Aug-21 04:00N 54°42' E 012°43'2 4.1
2019-Aug-21 03:30N 54°44' E 012°41'24 3.9
2019-Aug-20 21:18N 55°08' E 012°44'4 2.5
2019-Aug-20 19:47N 55°12' E 012°43'1 2.4
2019-Aug-20 19:29N 55°13' E 012°43'1 2.5
2019-Aug-20 18:59N 55°14' E 012°42'2 3.3
2019-Aug-20 18:30N 55°15' E 012°41'2 3.6
2019-Aug-20 18:00N 55°17' E 012°40'2 3.9
2019-Aug-20 17:30N 55°19' E 012°38'2 4.3
2019-Aug-20 17:00N 55°20' E 012°35'2 3.9
2019-Aug-20 16:30N 55°21' E 012°33'2 3.8
2019-Aug-20 16:00N 55°23' E 012°31'2 4.2
2019-Aug-20 15:30N 55°25' E 012°30'2 4.3
2019-Aug-20 15:00N 55°27' E 012°29'1 2.3
2019-Aug-20 14:30N 55°28' E 012°29'2 4.0
2019-Aug-20 14:00N 55°30' E 012°29'2 4.3
2019-Aug-20 13:30N 55°32' E 012°28'2 4.0
2019-Aug-20 13:00N 55°33' E 012°25'0 0.3
2019-Aug-20 12:26N 55°33' E 012°25'2 3.4
2019-Aug-20 11:59N 55°32' E 012°28'2 3.4
2019-Aug-20 11:30N 55°31' E 012°30'2 3.7
2019-Aug-20 11:00N 55°30' E 012°32'2 3.7
2019-Aug-20 10:30N 55°29' E 012°35'2 3.4
2019-Aug-20 10:00N 55°30' E 012°38'2 3.6
2019-Aug-20 09:30N 55°30' E 012°41'1 2.8
2019-Aug-20 09:00N 55°31' E 012°42'2 3.3
2019-Aug-20 08:30N 55°33' E 012°42'2 3.6
2019-Aug-20 08:00N 55°35' E 012°42'2 4.0
2019-Aug-20 07:30N 55°37' E 012°42'2 4.1
2019-Aug-20 07:00N 55°39' E 012°41'2 4.9
2019-Aug-20 06:30N 55°41' E 012°39'2 3.3
2019-Aug-20 06:00N 55°42' E 012°36'1 1.2
2019-Aug-20 05:25N 55°41' E 012°36'0 0.0
2019-Aug-20 04:54N 55°41' E 012°36'0 0.0
2019-Aug-20 04:30N 55°41' E 012°36'0 0.0
2019-Aug-20 04:00N 55°41' E 012°36'0 0.0
2019-Aug-20 03:15N 55°41' E 012°36'0 0.0
2019-Aug-20 02:57N 55°41' E 012°36'0 0.0
2019-Aug-20 02:24N 55°41' E 012°36'0 0.0
2019-Aug-20 02:00N 55°41' E 012°36'0 0.0
2019-Aug-20 01:24N 55°41' E 012°36'0 0.0
2019-Aug-20 01:00N 55°41' E 012°36'0 0.0
2019-Aug-20 00:30N 55°41' E 012°36'0 0.0
2019-Aug-19 23:57N 55°41' E 012°36'0 0.0
2019-Aug-19 23:24N 55°41' E 012°36'0 0.0
2019-Aug-19 22:42N 55°41' E 012°36'0 0.0
2019-Aug-19 22:30N 55°41' E 012°36'0 0.0
2019-Aug-19 21:57N 55°41' E 012°36'0 0.0
2019-Aug-19 21:30N 55°41' E 012°36'0 0.0
2019-Aug-19 20:57N 55°41' E 012°36'0 0.0
2019-Aug-19 20:27N 55°41' E 012°36'0 0.0
2019-Aug-19 19:48N 55°41' E 012°36'0 0.0
2019-Aug-19 19:27N 55°41' E 012°36'0 0.0
2019-Aug-19 18:57N 55°41' E 012°36'0 0.0
2019-Aug-19 18:12N 55°41' E 012°36'0 0.0
2019-Aug-19 17:51N 55°41' E 012°36'0 0.0
2019-Aug-19 17:27N 55°41' E 012°36'0 0.0
2019-Aug-19 16:54N 55°41' E 012°36'0 0.0
2019-Aug-19 16:27N 55°41' E 012°36'0 0.0
2019-Aug-19 16:00N 55°41' E 012°36'0 0.0
2019-Aug-19 15:27N 55°41' E 012°36'0 0.0
2019-Aug-19 15:00N 55°41' E 012°36'0 0.0
2019-Aug-19 14:27N 55°41' E 012°36'0 0.0
2019-Aug-19 14:00N 55°41' E 012°36'0 0.0
2019-Aug-19 13:24N 55°41' E 012°36'0 0.0
2019-Aug-19 13:00N 55°41' E 012°36'0 0.0
2019-Aug-19 12:30N 55°41' E 012°36'0 0.0
2019-Aug-19 12:00N 55°41' E 012°36'0 0.0
2019-Aug-19 11:18N 55°41' E 012°36'0 0.0
2019-Aug-19 11:00N 55°41' E 012°36'0 0.0
2019-Aug-19 10:30N 55°41' E 012°36'0 0.0
2019-Aug-19 10:00N 55°41' E 012°36'0 0.0
2019-Aug-19 09:27N 55°41' E 012°36'0 0.0
2019-Aug-19 09:00N 55°41' E 012°36'0 0.0
2019-Aug-19 08:30N 55°41' E 012°36'0 0.0
2019-Aug-19 07:57N 55°41' E 012°36'0 0.0
2019-Aug-19 07:27N 55°41' E 012°36'0 0.0
2019-Aug-19 07:00N 55°41' E 012°36'0 0.0
2019-Aug-19 06:27N 55°41' E 012°36'0 0.0
2019-Aug-19 05:51N 55°41' E 012°36'0 0.0
2019-Aug-19 05:27N 55°41' E 012°36'0 0.0
2019-Aug-19 04:54N 55°41' E 012°36'0 0.0
2019-Aug-19 04:27N 55°41' E 012°36'0 0.0
2019-Aug-19 03:57N 55°41' E 012°36'0 0.0
2019-Aug-19 03:30N 55°41' E 012°36'0 0.0
2019-Aug-19 03:00N 55°41' E 012°36'0 0.0
2019-Aug-19 02:24N 55°41' E 012°36'0 0.0
2019-Aug-19 02:00N 55°41' E 012°36'0 0.0
2019-Aug-19 01:27N 55°41' E 012°36'0 0.0
2019-Aug-19 01:00N 55°41' E 012°36'0 0.0
2019-Aug-19 00:30N 55°41' E 012°36'0 0.0
2019-Aug-19 00:00N 55°41' E 012°36'0 0.0
2019-Aug-18 23:27N 55°41' E 012°36'0 0.0
2019-Aug-18 22:57N 55°41' E 012°36'0 0.0
2019-Aug-18 22:27N 55°41' E 012°36'0 0.0
2019-Aug-18 22:00N 55°41' E 012°36'0 0.0
2019-Aug-18 21:27N 55°41' E 012°36'0 0.0
2019-Aug-18 21:00N 55°41' E 012°36'0 0.0
2019-Aug-18 20:30N 55°41' E 012°36'0 0.0
2019-Aug-18 19:56N 55°41' E 012°36'0 0.0
2019-Aug-18 19:26N 55°41' E 012°36'0 0.0
2019-Aug-18 18:59N 55°41' E 012°36'0 0.0
2019-Aug-18 18:29N 55°41' E 012°36'0 0.0
2019-Aug-18 17:59N 55°41' E 012°36'0 0.0
2019-Aug-18 17:29N 55°41' E 012°36'0 0.0
2019-Aug-18 16:50N 55°41' E 012°36'0 0.0
2019-Aug-18 16:20N 55°41' E 012°36'0 0.0
2019-Aug-18 15:59N 55°41' E 012°36'0 0.0
2019-Aug-18 15:26N 55°41' E 012°36'0 0.0
2019-Aug-18 14:59N 55°41' E 012°36'0 0.0
2019-Aug-18 14:29N 55°41' E 012°36'0 0.0
2019-Aug-18 13:56N 55°41' E 012°36'0 0.0
2019-Aug-18 13:29N 55°41' E 012°36'0 0.0
2019-Aug-18 12:59N 55°41' E 012°36'0 0.0
2019-Aug-18 12:11N 55°41' E 012°36'0 0.0
2019-Aug-18 11:56N 55°41' E 012°36'0 0.0
2019-Aug-18 11:29N 55°41' E 012°36'0 0.0
2019-Aug-18 10:56N 55°41' E 012°36'0 0.0
2019-Aug-18 10:17N 55°41' E 012°36'0 0.0
2019-Aug-18 09:56N 55°41' E 012°36'0 0.0
2019-Aug-18 09:11N 55°41' E 012°36'0 0.0
2019-Aug-18 08:56N 55°41' E 012°36'0 0.0
2019-Aug-18 08:26N 55°41' E 012°36'0 0.0
2019-Aug-18 07:59N 55°41' E 012°36'0 0.0
2019-Aug-18 06:59N 55°41' E 012°36'0 0.0
2019-Aug-18 06:29N 55°41' E 012°36'0 0.0
2019-Aug-18 05:59N 55°41' E 012°36'0 0.0
2019-Aug-18 05:20N 55°41' E 012°36'0 0.0
2019-Aug-18 04:56N 55°41' E 012°36'0 0.0
2019-Aug-18 04:23N 55°41' E 012°36'0 0.0
2019-Aug-18 03:59N 55°41' E 012°36'0 0.0
2019-Aug-18 03:20N 55°41' E 012°36'0 0.0
2019-Aug-18 02:44N 55°41' E 012°36'0 0.0
2019-Aug-18 02:29N 55°41' E 012°36'0 0.0
2019-Aug-18 01:56N 55°41' E 012°36'0 0.0
2019-Aug-18 01:26N 55°41' E 012°36'0 0.0
2019-Aug-18 00:56N 55°41' E 012°36'0 0.0
2019-Aug-18 00:20N 55°41' E 012°36'0 0.0
2019-Aug-17 23:59N 55°41' E 012°36'0 0.0
2019-Aug-17 23:26N 55°41' E 012°36'0 0.0
2019-Aug-17 22:59N 55°41' E 012°36'0 0.0
2019-Aug-17 22:14N 55°41' E 012°36'0 0.0
2019-Aug-17 21:59N 55°41' E 012°36'0 0.0
2019-Aug-17 21:23N 55°41' E 012°36'0 0.0
2019-Aug-17 20:53N 55°41' E 012°36'0 0.0
2019-Aug-17 20:26N 55°41' E 012°36'0 0.0
2019-Aug-17 19:59N 55°41' E 012°36'0 0.0
2019-Aug-17 19:26N 55°41' E 012°36'0 0.0
2019-Aug-17 18:53N 55°41' E 012°36'0 0.0
2019-Aug-17 18:29N 55°41' E 012°36'0 0.0
2019-Aug-17 17:29N 55°41' E 012°36'0 0.0
2019-Aug-17 16:56N 55°41' E 012°36'0 0.0
2019-Aug-17 16:23N 55°41' E 012°36'0 0.0
2019-Aug-17 15:59N 55°41' E 012°36'0 0.0
2019-Aug-17 15:29N 55°41' E 012°36'0 0.0
2019-Aug-17 14:35N 55°41' E 012°36'0 0.0
2019-Aug-17 14:26N 55°41' E 012°36'0 0.0
2019-Aug-17 13:59N 55°41' E 012°36'0 0.7
2019-Aug-17 13:30N 55°41' E 012°36'2 3.2
2019-Aug-17 13:00N 55°43' E 012°38'2 4.2
2019-Aug-17 12:30N 55°43' E 012°41'1 2.4
2019-Aug-17 12:00N 55°43' E 012°43'2 3.9
2019-Aug-17 11:30N 55°43' E 012°47'0 0.8
2019-Aug-17 11:00N 55°43' E 012°46'1 1.2
2019-Aug-17 10:30N 55°42' E 012°45'3 5.4
2019-Aug-17 09:55N 55°41' E 012°51'2 5.7
2019-Aug-17 09:30N 55°40' E 012°54'2 4.1
2019-Aug-17 08:57N 55°40' E 012°58'2 3.5
2019-Aug-17 08:30N 55°40' E 013°01'0 0.2
2019-Aug-17 07:53N 55°40' E 013°01'0 0.0
2019-Aug-17 06:29N 55°40' E 013°01'0 0.0
2019-Aug-17 05:56N 55°40' E 013°01'0 0.0
2019-Aug-17 04:47N 55°40' E 013°01'0 0.0
2019-Aug-17 03:35N 55°40' E 013°01'0 0.0
2019-Aug-17 03:26N 55°40' E 013°01'0 0.0
2019-Aug-16 23:56N 55°40' E 013°01'0 0.0
2019-Aug-16 23:29N 55°40' E 013°01'0 0.0
2019-Aug-16 22:56N 55°40' E 013°01'0 0.0
2019-Aug-16 22:20N 55°40' E 013°01'0 0.0
2019-Aug-16 21:50N 55°40' E 013°01'0 0.0
2019-Aug-16 21:05N 55°40' E 013°01'0 0.0
2019-Aug-16 20:44N 55°40' E 013°01'0 0.0
2019-Aug-16 20:29N 55°40' E 013°01'0 0.0
2019-Aug-16 19:41N 55°40' E 013°01'0 0.0
2019-Aug-16 19:20N 55°40' E 013°01'0 0.0
2019-Aug-16 18:20N 55°40' E 013°01'0 0.0
2019-Aug-16 17:02N 55°40' E 013°01'0 0.2
2019-Aug-16 16:59N 55°40' E 013°01'1 2.9
2019-Aug-16 16:29N 55°40' E 012°59'1 1.4
2019-Aug-16 15:57N 55°40' E 012°57'0 0.5
2019-Aug-16 15:30N 55°40' E 012°57'0 0.3
2019-Aug-16 15:00N 55°40' E 012°57'0 0.5
2019-Aug-16 14:30N 55°40' E 012°57'1 1.1
2019-Aug-16 14:00N 55°40' E 012°56'1 1.9
2019-Aug-16 13:30N 55°39' E 012°54'0 0.6
2019-Aug-16 13:00N 55°39' E 012°54'2 2.9
2019-Aug-16 12:27N 55°41' E 012°56'0 0.8
2019-Aug-16 12:00N 55°41' E 012°56'1 2.2
2019-Aug-16 11:30N 55°42' E 012°56'1 2.1
2019-Aug-16 11:01N 55°43' E 012°55'2 3.0
2019-Aug-16 10:23N 55°41' E 012°56'1 2.7
2019-Aug-16 10:00N 55°40' E 012°56'2 3.0
2019-Aug-16 09:30N 55°41' E 012°54'0 0.8
2019-Aug-16 09:00N 55°41' E 012°53'2 3.0
2019-Aug-16 08:22N 55°40' E 012°55'1 3.9
2019-Aug-16 07:59N 55°38' E 012°57'2 0.1
2019-Aug-15 12:41N 55°37' E 012°60'0 2.1
2019-Aug-15 12:29N 55°37' E 012°59'1 2.4
2019-Aug-15 12:00N 55°37' E 012°57'2 4.5
2019-Aug-15 11:31N 55°36' E 012°54'2 4.3
2019-Aug-15 11:00N 55°35' E 012°50'2 3.7
2019-Aug-15 10:31N 55°33' E 012°48'2 4.1
2019-Aug-15 10:00N 55°31' E 012°49'2 3.4
2019-Aug-15 09:30N 55°30' E 012°48'2 4.9
2019-Aug-15 09:00N 55°29' E 012°44'3 4.7
2019-Aug-15 08:26N 55°28' E 012°39'2 5.2
2019-Aug-15 08:00N 55°27' E 012°36'3 5.4
2019-Aug-15 07:29N 55°25' E 012°32'3 4.3
2019-Aug-15 06:51N 55°24' E 012°28'2 2.2
2019-Aug-15 05:56N 55°23' E 012°26'0 0.0
2019-Aug-15 05:26N 55°23' E 012°26'0 0.0
2019-Aug-15 02:44N 55°23' E 012°26'0 0.0
2019-Aug-15 02:14N 55°23' E 012°26'  
Track history (hours):
 
Tides and Currents Weather Stations Pressure Air Temp Water Temp Dewpoint Dewpoint Depression Visibility Wind Speed Wind Dir Waves Ship Positions

Fridtjof Nansen (Germany)

Last reported at 2019-Aug-24 19:19 UTC. Time now 2019-Aug-24 19:56 UTC.
Position N 53°54' E 011°27'.

Length 48 m; draft 2.8 m.

Type: Sailing vessel. MMSI: 211364430.

Date/timePositionNaut miles runAvg speedWind from/ knotsBaromVisibWave heightAir tempDewpointWater temp
2019-Aug-24 19:19N 53°54' E 011°27'0 0.0
2019-Aug-24 18:28N 53°54' E 011°27'0 0.0
2019-Aug-24 17:55N 53°54' E 011°27'1 2.3
2019-Aug-24 17:30N 53°55' E 011°26'2 5.1
2019-Aug-24 17:00N 53°57' E 011°24'2 4.3
2019-Aug-24 16:29N 53°59' E 011°22'2 4.0
2019-Aug-24 16:00N 54°00' E 011°20'2 3.7
2019-Aug-24 15:30N 54°02' E 011°23'4 5.3
2019-Aug-24 14:42N 54°05' E 011°27'5 4.9
2019-Aug-24 13:36N 54°10' E 011°32'4 4.6
2019-Aug-24 12:47N 54°13' E 011°35'1 4.3
2019-Aug-24 12:29N 54°14' E 011°37'2 4.2
2019-Aug-24 12:00N 54°15' E 011°39'2 4.0
2019-Aug-24 11:30N 54°17' E 011°40'3 4.0
2019-Aug-24 10:42N 54°20' E 011°43'1 4.1
2019-Aug-24 10:29N 54°21' E 011°44'2 4.1
2019-Aug-24 10:00N 54°22' E 011°46'2 4.2
2019-Aug-24 09:30N 54°24' E 011°48'3 3.9
2019-Aug-24 08:44N 54°27' E 011°50'1 3.9
2019-Aug-24 08:30N 54°27' E 011°51'2 3.6
2019-Aug-24 08:00N 54°29' E 011°53'2 3.4
2019-Aug-24 07:29N 54°31' E 011°54'1 0.8
2019-Aug-24 06:29N 54°31' E 011°55'0 0.0
2019-Aug-24 05:59N 54°31' E 011°55'0 0.0
2019-Aug-24 05:26N 54°31' E 011°55'0 0.1
2019-Aug-24 04:50N 54°31' E 011°55'0 0.0
2019-Aug-24 04:29N 54°31' E 011°55'0 0.0
2019-Aug-24 02:53N 54°31' E 011°55'0 0.0
2019-Aug-24 02:29N 54°31' E 011°55'0 0.0
2019-Aug-24 01:23N 54°31' E 011°55'0 0.0
2019-Aug-24 00:59N 54°31' E 011°55'0 0.0
2019-Aug-24 00:29N 54°31' E 011°55'0 0.0
2019-Aug-23 23:56N 54°31' E 011°55'0 0.0
2019-Aug-23 21:41N 54°31' E 011°55'0 0.0
2019-Aug-23 21:29N 54°31' E 011°55'0 0.0
2019-Aug-23 20:56N 54°31' E 011°55'0 0.0
2019-Aug-23 20:26N 54°31' E 011°55'0 0.0
2019-Aug-23 19:59N 54°31' E 011°55'0 0.0
2019-Aug-23 19:26N 54°31' E 011°55'0 0.0
2019-Aug-23 17:44N 54°31' E 011°55'0 0.0
2019-Aug-23 17:29N 54°31' E 011°55'0 0.0
2019-Aug-23 16:50N 54°31' E 011°55'0 0.0
2019-Aug-23 15:44N 54°31' E 011°55'0 0.0
2019-Aug-23 15:29N 54°31' E 011°55'0 0.3
2019-Aug-23 14:15N 54°32' E 011°55'1 3.4
2019-Aug-23 14:00N 54°32' E 011°55'2 3.7
2019-Aug-23 13:30N 54°34' E 011°56'0 0.4
2019-Aug-23 12:59N 54°34' E 011°56'0 0.0
2019-Aug-23 12:29N 54°34' E 011°56'0 0.0
2019-Aug-23 11:11N 54°34' E 011°56'0 0.0
2019-Aug-23 10:59N 54°34' E 011°56'0 0.0
2019-Aug-23 10:29N 54°34' E 011°56'0 0.0
2019-Aug-23 09:56N 54°34' E 011°56'0 0.0
2019-Aug-23 08:38N 54°34' E 011°56'0 0.0
2019-Aug-23 08:29N 54°34' E 011°56'0 0.0
2019-Aug-23 07:50N 54°34' E 011°56'0 0.0
2019-Aug-23 07:29N 54°34' E 011°56'0 0.0
2019-Aug-23 06:59N 54°34' E 011°56'0 0.0
2019-Aug-23 06:26N 54°34' E 011°56'0 0.0
2019-Aug-23 05:59N 54°34' E 011°56'0 0.0
2019-Aug-23 04:05N 54°34' E 011°56'0 0.0
2019-Aug-23 03:56N 54°34' E 011°56'0 0.0
2019-Aug-23 03:29N 54°34' E 011°56'0 0.0
2019-Aug-23 02:56N 54°34' E 011°56'0 0.0
2019-Aug-23 02:29N 54°34' E 011°56'0 0.0
2019-Aug-23 01:56N 54°34' E 011°56'0 0.0
2019-Aug-23 01:20N 54°34' E 011°56'0 0.0
2019-Aug-23 00:56N 54°34' E 011°56'0 0.0
2019-Aug-23 00:17N 54°34' E 011°56'0 0.0
2019-Aug-22 23:53N 54°34' E 011°56'0 0.0
2019-Aug-22 22:26N 54°34' E 011°56'0 0.0
2019-Aug-22 21:59N 54°34' E 011°56'0 0.0
2019-Aug-22 20:29N 54°34' E 011°56'0 0.0
2019-Aug-22 19:59N 54°34' E 011°56'0 0.0
2019-Aug-22 19:28N 54°34' E 011°56'0 0.0
2019-Aug-22 17:43N 54°34' E 011°56'0 0.0
2019-Aug-22 17:28N 54°34' E 011°56'0 0.0
2019-Aug-22 16:55N 54°34' E 011°56'0 0.0
2019-Aug-22 16:28N 54°34' E 011°56'0 0.4
2019-Aug-22 15:20N 54°34' E 011°56'1 3.1
2019-Aug-22 14:59N 54°33' E 011°56'1 1.7
2019-Aug-22 14:30N 54°32' E 011°56'1 0.8
2019-Aug-22 13:41N 54°32' E 011°57'0 1.2
2019-Aug-22 13:26N 54°32' E 011°58'0 1.0
2019-Aug-22 13:00N 54°32' E 011°58'1 1.1
2019-Aug-22 11:44N 54°31' E 011°56'0 1.3
2019-Aug-22 11:26N 54°30' E 011°56'0 1.1
2019-Aug-22 11:00N 54°30' E 011°55'5 3.7
2019-Aug-22 09:44N 54°31' E 012°03'1 4.4
2019-Aug-22 09:30N 54°31' E 012°05'2 4.2
2019-Aug-22 09:00N 54°31' E 012°09'2 4.0
2019-Aug-22 08:29N 54°31' E 012°12'2 4.0
2019-Aug-22 08:00N 54°30' E 012°15'2 3.8
2019-Aug-22 07:30N 54°30' E 012°19'2 3.8
2019-Aug-22 07:00N 54°30' E 012°22'5 4.0
2019-Aug-22 05:43N 54°31' E 012°31'1 3.9
2019-Aug-22 05:28N 54°31' E 012°32'2 3.7
2019-Aug-22 05:00N 54°31' E 012°35'2 4.1
2019-Aug-22 04:30N 54°30' E 012°38'1 3.0
2019-Aug-22 04:00N 54°29' E 012°40'1 0.1
2019-Aug-21 08:15N 54°28' E 012°42'1 2.2
2019-Aug-21 08:00N 54°28' E 012°42'1 3.0
2019-Aug-21 07:30N 54°30' E 012°42'9 3.2
2019-Aug-21 04:44N 54°39' E 012°43'1 5.0
2019-Aug-21 04:30N 54°40' E 012°43'3 5.1
2019-Aug-21 04:00N 54°42' E 012°43'2 4.1
2019-Aug-21 03:30N 54°44' E 012°41'24 3.9
2019-Aug-20 21:18N 55°08' E 012°44'4 2.5
2019-Aug-20 19:47N 55°12' E 012°43'1 2.4
2019-Aug-20 19:29N 55°13' E 012°43'1 2.5
2019-Aug-20 18:59N 55°14' E 012°42'2 3.3
2019-Aug-20 18:30N 55°15' E 012°41'2 3.6
2019-Aug-20 18:00N 55°17' E 012°40'2 3.9
2019-Aug-20 17:30N 55°19' E 012°38'2 4.3
2019-Aug-20 17:00N 55°20' E 012°35'2 3.9
2019-Aug-20 16:30N 55°21' E 012°33'2 3.8
2019-Aug-20 16:00N 55°23' E 012°31'2 4.2
2019-Aug-20 15:30N 55°25' E 012°30'2 4.3
2019-Aug-20 15:00N 55°27' E 012°29'1 2.3
2019-Aug-20 14:30N 55°28' E 012°29'2 4.0
2019-Aug-20 14:00N 55°30' E 012°29'2 4.3
2019-Aug-20 13:30N 55°32' E 012°28'2 4.0
2019-Aug-20 13:00N 55°33' E 012°25'0 0.3
2019-Aug-20 12:26N 55°33' E 012°25'2 3.4
2019-Aug-20 11:59N 55°32' E 012°28'2 3.4
2019-Aug-20 11:30N 55°31' E 012°30'2 3.7
2019-Aug-20 11:00N 55°30' E 012°32'2 3.7
2019-Aug-20 10:30N 55°29' E 012°35'2 3.4
2019-Aug-20 10:00N 55°30' E 012°38'2 3.6
2019-Aug-20 09:30N 55°30' E 012°41'1 2.8
2019-Aug-20 09:00N 55°31' E 012°42'2 3.3
2019-Aug-20 08:30N 55°33' E 012°42'2 3.6
2019-Aug-20 08:00N 55°35' E 012°42'2 4.0
2019-Aug-20 07:30N 55°37' E 012°42'2 4.1
2019-Aug-20 07:00N 55°39' E 012°41'2 4.9
2019-Aug-20 06:30N 55°41' E 012°39'2 3.3
2019-Aug-20 06:00N 55°42' E 012°36'1 1.2
2019-Aug-20 05:25N 55°41' E 012°36'0 0.0
2019-Aug-20 04:54N 55°41' E 012°36'0 0.0
2019-Aug-20 04:30N 55°41' E 012°36'0 0.0
2019-Aug-20 04:00N 55°41' E 012°36'0 0.0
2019-Aug-20 03:15N 55°41' E 012°36'0 0.0
2019-Aug-20 02:57N 55°41' E 012°36'0 0.0
2019-Aug-20 02:24N 55°41' E 012°36'0 0.0
2019-Aug-20 02:00N 55°41' E 012°36'0 0.0
2019-Aug-20 01:24N 55°41' E 012°36'0 0.0
2019-Aug-20 01:00N 55°41' E 012°36'0 0.0
2019-Aug-20 00:30N 55°41' E 012°36'0 0.0
2019-Aug-19 23:57N 55°41' E 012°36'0 0.0
2019-Aug-19 23:24N 55°41' E 012°36'0 0.0
2019-Aug-19 22:42N 55°41' E 012°36'0 0.0
2019-Aug-19 22:30N 55°41' E 012°36'0 0.0
2019-Aug-19 21:57N 55°41' E 012°36'0 0.0
2019-Aug-19 21:30N 55°41' E 012°36'0 0.0
2019-Aug-19 20:57N 55°41' E 012°36'0 0.0
2019-Aug-19 20:27N 55°41' E 012°36'0 0.0
2019-Aug-19 19:48N 55°41' E 012°36'0 0.0
2019-Aug-19 19:27N 55°41' E 012°36'0 0.0
2019-Aug-19 18:57N 55°41' E 012°36'0 0.0
2019-Aug-19 18:12N 55°41' E 012°36'0 0.0
2019-Aug-19 17:51N 55°41' E 012°36'0 0.0
2019-Aug-19 17:27N 55°41' E 012°36'0 0.0
2019-Aug-19 16:54N 55°41' E 012°36'0 0.0
2019-Aug-19 16:27N 55°41' E 012°36'0 0.0
2019-Aug-19 16:00N 55°41' E 012°36'0 0.0
2019-Aug-19 15:27N 55°41' E 012°36'0 0.0
2019-Aug-19 15:00N 55°41' E 012°36'0 0.0
2019-Aug-19 14:27N 55°41' E 012°36'0 0.0
2019-Aug-19 14:00N 55°41' E 012°36'0 0.0
2019-Aug-19 13:24N 55°41' E 012°36'0 0.0
2019-Aug-19 13:00N 55°41' E 012°36'0 0.0
2019-Aug-19 12:30N 55°41' E 012°36'0 0.0
2019-Aug-19 12:00N 55°41' E 012°36'0 0.0
2019-Aug-19 11:18N 55°41' E 012°36'0 0.0
2019-Aug-19 11:00N 55°41' E 012°36'0 0.0
2019-Aug-19 10:30N 55°41' E 012°36'0 0.0
2019-Aug-19 10:00N 55°41' E 012°36'0 0.0
2019-Aug-19 09:27N 55°41' E 012°36'0 0.0
2019-Aug-19 09:00N 55°41' E 012°36'0 0.0
2019-Aug-19 08:30N 55°41' E 012°36'0 0.0
2019-Aug-19 07:57N 55°41' E 012°36'0 0.0
2019-Aug-19 07:27N 55°41' E 012°36'0 0.0
2019-Aug-19 07:00N 55°41' E 012°36'0 0.0
2019-Aug-19 06:27N 55°41' E 012°36'0 0.0
2019-Aug-19 05:51N 55°41' E 012°36'0 0.0
2019-Aug-19 05:27N 55°41' E 012°36'0 0.0
2019-Aug-19 04:54N 55°41' E 012°36'0 0.0
2019-Aug-19 04:27N 55°41' E 012°36'0 0.0
2019-Aug-19 03:57N 55°41' E 012°36'0 0.0
2019-Aug-19 03:30N 55°41' E 012°36'0 0.0
2019-Aug-19 03:00N 55°41' E 012°36'0 0.0
2019-Aug-19 02:24N 55°41' E 012°36'0 0.0
2019-Aug-19 02:00N 55°41' E 012°36'0 0.0
2019-Aug-19 01:27N 55°41' E 012°36'0 0.0
2019-Aug-19 01:00N 55°41' E 012°36'0 0.0
2019-Aug-19 00:30N 55°41' E 012°36'0 0.0
2019-Aug-19 00:00N 55°41' E 012°36'0 0.0
2019-Aug-18 23:27N 55°41' E 012°36'0 0.0
2019-Aug-18 22:57N 55°41' E 012°36'0 0.0
2019-Aug-18 22:27N 55°41' E 012°36'0 0.0
2019-Aug-18 22:00N 55°41' E 012°36'0 0.0
2019-Aug-18 21:27N 55°41' E 012°36'0 0.0
2019-Aug-18 21:00N 55°41' E 012°36'0 0.0
2019-Aug-18 20:30N 55°41' E 012°36'0 0.0
2019-Aug-18 19:56N 55°41' E 012°36'0 0.0
2019-Aug-18 19:26N 55°41' E 012°36'0 0.0
2019-Aug-18 18:59N 55°41' E 012°36'0 0.0
2019-Aug-18 18:29N 55°41' E 012°36'0 0.0
2019-Aug-18 17:59N 55°41' E 012°36'0 0.0
2019-Aug-18 17:29N 55°41' E 012°36'0 0.0
2019-Aug-18 16:50N 55°41' E 012°36'0 0.0
2019-Aug-18 16:20N 55°41' E 012°36'0 0.0
2019-Aug-18 15:59N 55°41' E 012°36'0 0.0
2019-Aug-18 15:26N 55°41' E 012°36'0 0.0
2019-Aug-18 14:59N 55°41' E 012°36'0 0.0
2019-Aug-18 14:29N 55°41' E 012°36'0 0.0
2019-Aug-18 13:56N 55°41' E 012°36'0 0.0
2019-Aug-18 13:29N 55°41' E 012°36'0 0.0
2019-Aug-18 12:59N 55°41' E 012°36'0 0.0
2019-Aug-18 12:11N 55°41' E 012°36'0 0.0
2019-Aug-18 11:56N 55°41' E 012°36'0 0.0
2019-Aug-18 11:29N 55°41' E 012°36'0 0.0
2019-Aug-18 10:56N 55°41' E 012°36'0 0.0
2019-Aug-18 10:17N 55°41' E 012°36'0 0.0
2019-Aug-18 09:56N 55°41' E 012°36'0 0.0
2019-Aug-18 09:11N 55°41' E 012°36'0 0.0
2019-Aug-18 08:56N 55°41' E 012°36'0 0.0
2019-Aug-18 08:26N 55°41' E 012°36'0 0.0
2019-Aug-18 07:59N 55°41' E 012°36'0 0.0
2019-Aug-18 06:59N 55°41' E 012°36'0 0.0
2019-Aug-18 06:29N 55°41' E 012°36'0 0.0
2019-Aug-18 05:59N 55°41' E 012°36'0 0.0
2019-Aug-18 05:20N 55°41' E 012°36'0 0.0
2019-Aug-18 04:56N 55°41' E 012°36'0 0.0
2019-Aug-18 04:23N 55°41' E 012°36'0 0.0
2019-Aug-18 03:59N 55°41' E 012°36'0 0.0
2019-Aug-18 03:20N 55°41' E 012°36'0 0.0
2019-Aug-18 02:44N 55°41' E 012°36'0 0.0
2019-Aug-18 02:29N 55°41' E 012°36'0 0.0
2019-Aug-18 01:56N 55°41' E 012°36'0 0.0
2019-Aug-18 01:26N 55°41' E 012°36'0 0.0
2019-Aug-18 00:56N 55°41' E 012°36'0 0.0
2019-Aug-18 00:20N 55°41' E 012°36'0 0.0
2019-Aug-17 23:59N 55°41' E 012°36'0 0.0
2019-Aug-17 23:26N 55°41' E 012°36'0 0.0
2019-Aug-17 22:59N 55°41' E 012°36'0 0.0
2019-Aug-17 22:14N 55°41' E 012°36'0 0.0
2019-Aug-17 21:59N 55°41' E 012°36'0 0.0
2019-Aug-17 21:23N 55°41' E 012°36'0 0.0
2019-Aug-17 20:53N 55°41' E 012°36'0 0.0
2019-Aug-17 20:26N 55°41' E 012°36'0 0.0
2019-Aug-17 19:59N 55°41' E 012°36'0 0.0
2019-Aug-17 19:26N 55°41' E 012°36'0 0.0
2019-Aug-17 18:53N 55°41' E 012°36'0 0.0
2019-Aug-17 18:29N 55°41' E 012°36'0 0.0
2019-Aug-17 17:29N 55°41' E 012°36'0 0.0
2019-Aug-17 16:56N 55°41' E 012°36'0 0.0
2019-Aug-17 16:23N 55°41' E 012°36'0 0.0
2019-Aug-17 15:59N 55°41' E 012°36'0 0.0
2019-Aug-17 15:29N 55°41' E 012°36'0 0.0
2019-Aug-17 14:35N 55°41' E 012°36'0 0.0
2019-Aug-17 14:26N 55°41' E 012°36'0 0.0
2019-Aug-17 13:59N 55°41' E 012°36'0 0.7
2019-Aug-17 13:30N 55°41' E 012°36'2 3.2
2019-Aug-17 13:00N 55°43' E 012°38'2 4.2
2019-Aug-17 12:30N 55°43' E 012°41'1 2.4
2019-Aug-17 12:00N 55°43' E 012°43'2 3.9
2019-Aug-17 11:30N 55°43' E 012°47'0 0.8
2019-Aug-17 11:00N 55°43' E 012°46'1 1.2
2019-Aug-17 10:30N 55°42' E 012°45'3 5.4
2019-Aug-17 09:55N 55°41' E 012°51'2 5.7
2019-Aug-17 09:30N 55°40' E 012°54'2 4.1
2019-Aug-17 08:57N 55°40' E 012°58'2 3.5
2019-Aug-17 08:30N 55°40' E 013°01'0 0.2
2019-Aug-17 07:53N 55°40' E 013°01'0 0.0
2019-Aug-17 06:29N 55°40' E 013°01'0 0.0
2019-Aug-17 05:56N 55°40' E 013°01'0 0.0
2019-Aug-17 04:47N 55°40' E 013°01'0 0.0
2019-Aug-17 03:35N 55°40' E 013°01'0 0.0
2019-Aug-17 03:26N 55°40' E 013°01'0 0.0
2019-Aug-16 23:56N 55°40' E 013°01'0 0.0
2019-Aug-16 23:29N 55°40' E 013°01'0 0.0
2019-Aug-16 22:56N 55°40' E 013°01'0 0.0
2019-Aug-16 22:20N 55°40' E 013°01'0 0.0
2019-Aug-16 21:50N 55°40' E 013°01'0 0.0
2019-Aug-16 21:05N 55°40' E 013°01'0 0.0
2019-Aug-16 20:44N 55°40' E 013°01'0 0.0
2019-Aug-16 20:29N 55°40' E 013°01'0 0.0
2019-Aug-16 19:41N 55°40' E 013°01'0 0.0
2019-Aug-16 19:20N 55°40' E 013°01'0 0.0
2019-Aug-16 18:20N 55°40' E 013°01'0 0.0
2019-Aug-16 17:02N 55°40' E 013°01'0 0.2
2019-Aug-16 16:59N 55°40' E 013°01'1 2.9
2019-Aug-16 16:29N 55°40' E 012°59'1 1.4
2019-Aug-16 15:57N 55°40' E 012°57'0 0.5
2019-Aug-16 15:30N 55°40' E 012°57'0 0.3
2019-Aug-16 15:00N 55°40' E 012°57'0 0.5
2019-Aug-16 14:30N 55°40' E 012°57'1 1.1
2019-Aug-16 14:00N 55°40' E 012°56'1 1.9
2019-Aug-16 13:30N 55°39' E 012°54'0 0.6
2019-Aug-16 13:00N 55°39' E 012°54'2 2.9
2019-Aug-16 12:27N 55°41' E 012°56'0 0.8
2019-Aug-16 12:00N 55°41' E 012°56'1 2.2
2019-Aug-16 11:30N 55°42' E 012°56'1 2.1
2019-Aug-16 11:01N 55°43' E 012°55'2 3.0
2019-Aug-16 10:23N 55°41' E 012°56'1 2.7
2019-Aug-16 10:00N 55°40' E 012°56'2 3.0
2019-Aug-16 09:30N 55°41' E 012°54'0 0.8
2019-Aug-16 09:00N 55°41' E 012°53'2 3.0
2019-Aug-16 08:22N 55°40' E 012°55'1 3.9
2019-Aug-16 07:59N 55°38' E 012°57'2 0.1
2019-Aug-15 12:41N 55°37' E 012°60'0 2.1
2019-Aug-15 12:29N 55°37' E 012°59'1 2.4
2019-Aug-15 12:00N 55°37' E 012°57'2 4.5
2019-Aug-15 11:31N 55°36' E 012°54'2 4.3
2019-Aug-15 11:00N 55°35' E 012°50'2 3.7
2019-Aug-15 10:31N 55°33' E 012°48'2 4.1
2019-Aug-15 10:00N 55°31' E 012°49'2 3.4
2019-Aug-15 09:30N 55°30' E 012°48'2 4.9
2019-Aug-15 09:00N 55°29' E 012°44'3 4.7
2019-Aug-15 08:26N 55°28' E 012°39'2 5.2
2019-Aug-15 08:00N 55°27' E 012°36'3 5.4
2019-Aug-15 07:29N 55°25' E 012°32'3 4.3
2019-Aug-15 06:51N 55°24' E 012°28'2 2.2
2019-Aug-15 05:56N 55°23' E 012°26'0 0.0
2019-Aug-15 05:26N 55°23' E 012°26'0 0.0
2019-Aug-15 02:44N 55°23' E 012°26'0 0.0
2019-Aug-15 02:14N 55°23' E 012°26'  

Dump ship's entire track history